Accueil
METAR-TAF:

METAR-TAF

Aéroports :

Londres-Southend, Angleterre

Aéroport de Londres-Southend

latitude: 51-34N, longitude: 000-42E, altitude: 15 m

Observation

Le bulletin a été fait il y a 16 minutes, à 19:20 UTC
Vent 3 kt de direction variable
Température 17°C
Humidité 63%
Pression 1025 hPa
Visibilité 10 km ou plus
Quelques nuages à une hauteur de 4500 ft

METAR: EGMC 241920Z VRB03KT 9999 FEW045 17/10 Q1025

Heure: 20:36 (19:36 UTC)

Prévision

Le bulletin a été fait il y a 2 heures et 32 minutes, à 17:04 UTC
Prévision valable du 24 à 18 UTC au 25 à 03 UTC
Vent 5 kt de sud-est
Visibilité 10 km ou plus
Quelques nuages à une hauteur de 4500 ft
Probabilité 30%
du 24 à 23 UTC au 25 à 03 UTC
Visibilité: 7000 m

TAF: EGMC 241704Z 2418/2503 13005KT 9999 FEW045 PROB30 2423/2503 7000

Observations et prévisions météorologiques de plus de 4000 aéroports (messages METAR et TAF).

Les stations disponibles sont représentées par des disques jaunes et rouges sur la carte.

Passer la souris dessus pour voir le nom de la station.

Cliquer dessus pour voir les observations et prévisions météorologiques.

Pour changer de carte: cliquez sur les boutons verts avec une croix noire pour zoomer, sur le bouton vert avec un tiret pour effectuer un zoom arrière, ou sur les flèches vertes pour les cartes adjacentes.


METAR-TAF: